This is the latest recevied weather packets stored in our database for station/object KN6ZYR. If no packets are shown the sender has not sent any weather packets the latest 1 day(s).
| Time | Temp. | Humidity | Pressure | Rain* | Wind** | Luminosity | Snow |
|---|---|---|---|---|---|---|---|
| 1778103727 | 26.11° C | 18% | 1022.4 hPa | 0 mm | - | 682 W/m² | - |
| 1778103425 | 26.11° C | 19% | 1022.5 hPa | 0 mm | - | 693 W/m² | - |
| 1778102210 | 26.11° C | 20% | 1022.7 hPa | 0 mm | - | 727 W/m² | - |
| 1778101300 | 26.11° C | 21% | 1022.5 hPa | 0 mm | - | 753 W/m² | - |
| 1778100692 | 26.11° C | 22% | 1022.7 hPa | 0 mm | - | 768 W/m² | - |
| 1778098573 | 25° C | 22% | 1023.1 hPa | 0 mm | - | 796 W/m² | - |
| 1778097966 | 26.11° C | 22% | 1023.2 hPa | 0 mm | - | 800 W/m² | - |
| 1778097359 | 25° C | 24% | 1023.2 hPa | 0 mm | - | 804 W/m² | - |
| 1778095541 | 25° C | 24% | 1023.3 hPa | 0 mm | - | 807 W/m² | - |
| 1778095237 | 25° C | 23% | 1023.2 hPa | 0 mm | - | 805 W/m² | - |
| 1778094934 | 25° C | 23% | 1023.2 hPa | 0 mm | - | 813 W/m² | - |
| 1778093115 | 24.44° C | 26% | 1023.6 hPa | 0 mm | - | 787 W/m² | - |
| 1778092205 | 23.89° C | 28% | 1023.5 hPa | 0 mm | - | 769 W/m² | - |
| 1778090690 | 23.33° C | 29% | 1023.8 hPa | 0 mm | - | 731 W/m² | - |
| 1778090387 | 22.22° C | 30% | 1023.8 hPa | 0 mm | - | 723 W/m² | - |
| 1778089780 | 22.22° C | 30% | 1023.9 hPa | 0 mm | - | 703 W/m² | - |
| 1778088872 | 22.22° C | 32% | 1023.8 hPa | 0 mm | - | 671 W/m² | - |
| 1778088569 | 21.67° C | 33% | 1024 hPa | 0 mm | - | 660 W/m² | - |
| 1778088266 | 21.11° C | 33% | 1023.8 hPa | 0 mm | - | 649 W/m² | - |
| 1778087054 | 20.56° C | 35% | 1023.8 hPa | 0 mm | - | 600 W/m² | - |
| 1778086753 | 20.56° C | 36% | 1024 hPa | 0 mm | - | 587 W/m² | - |
| 1778084925 | 20° C | 39% | 1023.9 hPa | 0 mm | - | 510 W/m² | - |
| 1778083412 | 18.33° C | 45% | 1023.5 hPa | 0 mm | - | 437 W/m² | - |
| 1778081679 | 16.67° C | 46% | 1023.5 hPa | 0 mm | - | 135 W/m² | - |
| 1778081073 | 15.56° C | 48% | 1023.5 hPa | 0 mm | - | 338 W/m² | - |
* Rain latest hour (hover to see other rain measurements)
** Current wind speed in m/s (hover to see current wind gust speed)